Time;durP1;ratioP1;P1;durP2;ratioP2;P2;SDS_P1;SDS_P2;PMS_P1;PMS_P2;Temp;Humidity;BMP_temperature;BMP_pressure;BME280_temperature;BME280_humidity;BME280_pressure;Samples;Min_cycle;Max_cycle;Signal;HPM_P1;HPM_P2
2022/01/11 00:00:25;;;;;;;15.50;5.25;;;7.50;47.60;;;;;;5075783;28;20551;-52
2022/01/11 00:02:53;;;;;;;21.98;6.20;;;7.50;47.60;;;;;;5075747;28;20161;-52
2022/01/11 00:05:34;;;;;;;19.55;6.72;;;7.50;47.60;;;;;;5075674;28;20183;-52
2022/01/11 00:08:00;;;;;;;18.35;7.30;;;7.40;47.30;;;;;;5075809;28;20152;-52
2022/01/11 00:10:32;;;;;;;10.35;6.32;;;7.40;46.90;;;;;;5075568;28;20559;-52
2022/01/11 00:13:00;;;;;;;9.57;4.30;;;7.30;46.90;;;;;;5075000;28;20153;-52
2022/01/11 00:15:27;;;;;;;16.55;6.57;;;7.30;47.30;;;;;;5075537;28;20624;-52
2022/01/11 00:17:53;;;;;;;18.25;6.13;;;7.30;47.40;;;;;;5075504;28;20243;-52
2022/01/11 00:20:21;;;;;;;20.35;6.10;;;7.30;47.00;;;;;;5075213;28;20298;-52
2022/01/11 00:25:27;;;;;;;18.15;7.82;;;7.20;46.90;;;;;;5075351;28;20164;-52
2022/01/11 00:27:52;;;;;;;18.02;6.85;;;7.10;47.10;;;;;;5075386;28;20179;-52
2022/01/11 00:30:19;;;;;;;12.00;5.00;;;7.10;47.30;;;;;;5075283;28;20157;-52
2022/01/11 00:32:50;;;;;;;13.77;5.95;;;7.10;47.30;;;;;;5075285;28;20199;-52
2022/01/11 00:35:17;;;;;;;18.00;7.78;;;7.00;47.30;;;;;;5075155;28;20153;-52
2022/01/11 00:37:44;;;;;;;18.52;7.35;;;7.00;47.50;;;;;;5075058;28;20168;-52
2022/01/11 00:40:11;;;;;;;21.15;8.43;;;7.00;47.40;;;;;;5074930;28;20204;-52
2022/01/11 00:42:37;;;;;;;15.57;6.47;;;7.10;47.40;;;;;;5074952;28;20551;-52
2022/01/11 00:45:05;;;;;;;29.40;8.00;;;7.00;47.10;;;;;;5074875;28;20596;-52
2022/01/11 00:47:31;;;;;;;14.02;6.85;;;7.00;47.30;;;;;;5074870;28;20251;-52
2022/01/11 00:49:56;;;;;;;15.57;6.40;;;7.00;47.30;;;;;;5075023;28;20715;-52
2022/01/11 00:52:22;;;;;;;23.90;7.00;;;6.90;47.40;;;;;;5074781;28;20556;-52
2022/01/11 00:54:48;;;;;;;19.53;7.60;;;6.80;46.60;;;;;;5074937;28;20190;-52
2022/01/11 00:57:14;;;;;;;10.10;6.70;;;6.70;46.90;;;;;;5074640;28;20263;-52
2022/01/11 00:59:40;;;;;;;13.83;6.83;;;6.70;46.50;;;;;;5074543;28;20200;-52
2022/01/11 01:02:06;;;;;;;21.33;6.30;;;6.70;46.90;;;;;;5074647;28;20407;-52
2022/01/11 01:04:33;;;;;;;22.17;6.88;;;6.70;47.10;;;;;;5074522;28;20894;-52
2022/01/11 01:06:59;;;;;;;11.48;5.13;;;6.70;47.60;;;;;;5074748;28;20200;-52
2022/01/11 01:09:31;;;;;;;11.77;5.80;;;6.60;46.80;;;;;;5074377;28;20161;-52
2022/01/11 01:11:57;;;;;;;10.98;6.50;;;6.70;46.70;;;;;;5074677;28;20169;-52
2022/01/11 01:14:23;;;;;;;14.30;6.93;;;6.60;46.60;;;;;;5074405;28;20809;-52
2022/01/11 01:16:49;;;;;;;17.33;6.70;;;6.60;47.30;;;;;;5074388;28;20548;-52
2022/01/11 01:19:14;;;;;;;14.10;5.30;;;6.60;46.30;;;;;;5074042;28;20307;-52
2022/01/11 01:21:40;;;;;;;24.43;7.87;;;6.60;46.70;;;;;;5074207;28;20561;-52
2022/01/11 01:24:08;;;;;;;12.60;6.13;;;6.50;46.40;;;;;;5074144;28;20168;-52
2022/01/11 01:26:34;;;;;;;11.10;6.68;;;6.50;46.30;;;;;;5074075;28;20168;-52
2022/01/11 01:29:00;;;;;;;14.50;7.07;;;6.50;46.30;;;;;;5073576;28;20180;-52
2022/01/11 01:31:27;;;;;;;10.98;6.60;;;6.50;46.30;;;;;;5074072;28;20165;-52
2022/01/11 01:33:55;;;;;;;10.48;5.70;;;6.40;46.30;;;;;;5074075;28;20184;-52
2022/01/11 01:36:21;;;;;;;10.95;5.07;;;6.40;46.30;;;;;;5073923;28;20202;-52
2022/01/11 01:38:47;;;;;;;19.60;7.05;;;6.40;46.20;;;;;;5073965;28;20196;-52
2022/01/11 01:41:16;;;;;;;17.23;6.33;;;6.30;46.20;;;;;;5074029;28;20172;-52
2022/01/11 01:43:44;;;;;;;13.68;5.40;;;6.40;46.00;;;;;;5074071;28;20172;-52
2022/01/11 01:46:09;;;;;;;15.55;6.80;;;6.40;46.10;;;;;;5071868;28;20611;-52
2022/01/11 01:48:36;;;;;;;12.33;5.97;;;6.30;46.30;;;;;;5073922;28;20246;-51
2022/01/11 01:51:03;;;;;;;12.75;6.32;;;6.30;46.20;;;;;;5073828;28;20508;-52
2022/01/11 01:53:29;;;;;;;16.33;7.10;;;6.30;46.00;;;;;;5073717;28;20177;-52
2022/01/11 01:55:55;;;;;;;16.23;5.95;;;6.30;46.20;;;;;;5073767;28;20160;-51
2022/01/11 01:58:21;;;;;;;14.75;5.22;;;6.30;46.10;;;;;;5072345;28;20180;-52
2022/01/11 02:00:54;;;;;;;10.98;6.32;;;6.20;46.80;;;;;;5072392;28;20266;-52
2022/01/11 02:03:26;;;;;;;16.20;7.45;;;6.20;45.90;;;;;;5073674;28;20158;-52
2022/01/11 02:05:54;;;;;;;16.65;6.30;;;6.20;46.80;;;;;;5073629;28;20516;-52
2022/01/11 02:08:20;;;;;;;17.95;6.68;;;6.20;46.10;;;;;;5073559;28;20172;-52
2022/01/11 02:10:46;;;;;;;10.93;6.20;;;6.20;46.30;;;;;;5073686;28;20574;-52
2022/01/11 02:13:12;;;;;;;12.87;6.37;;;6.20;46.10;;;;;;5073545;28;20816;-52
2022/01/11 02:15:38;;;;;;;12.90;5.77;;;6.20;46.10;;;;;;5073588;28;20168;-52
2022/01/11 02:18:24;;;;;;;10.73;5.35;;;6.20;46.00;;;;;;5071926;28;20570;-53
2022/01/11 02:20:51;;;;;;;15.55;6.45;;;6.10;46.20;;;;;;5073589;28;20243;-52
2022/01/11 02:23:19;;;;;;;13.10;8.05;;;6.10;46.10;;;;;;5073403;28;20169;-52
2022/01/11 02:25:46;;;;;;;19.25;7.93;;;6.10;46.00;;;;;;5073444;28;20169;-52
2022/01/11 02:28:14;;;;;;;19.52;6.97;;;6.10;45.80;;;;;;5073374;28;20180;-52
2022/01/11 02:30:41;;;;;;;11.93;5.32;;;6.10;46.10;;;;;;5073373;28;20246;-52
2022/01/11 02:33:15;;;;;;;17.05;8.05;;;6.10;46.20;;;;;;5072186;28;20639;-52
2022/01/11 02:35:48;;;;;;;16.38;6.32;;;6.10;46.00;;;;;;5073314;28;20673;-52
2022/01/11 02:38:14;;;;;;;19.10;7.45;;;6.10;46.00;;;;;;5073207;28;20244;-52
2022/01/11 02:40:39;;;;;;;23.03;7.80;;;6.10;46.10;;;;;;5073547;28;20251;-52
2022/01/11 02:43:06;;;;;;;17.93;7.60;;;6.10;45.80;;;;;;5075970;28;20218;-52
2022/01/11 02:45:32;;;;;;;8.07;5.95;;;6.20;45.70;;;;;;5077357;28;20161;-52
2022/01/11 02:47:57;;;;;;;16.10;5.67;;;6.10;45.80;;;;;;5077145;28;20173;-52
2022/01/11 02:50:24;;;;;;;16.77;7.43;;;6.10;45.80;;;;;;5077079;28;20165;-52
2022/01/11 02:52:50;;;;;;;18.95;9.02;;;6.10;45.80;;;;;;5077319;28;20251;-52
2022/01/11 02:55:16;;;;;;;19.03;8.30;;;6.10;45.50;;;;;;5077017;28;20680;-52
2022/01/11 02:57:42;;;;;;;7.47;5.93;;;6.10;45.60;;;;;;5077260;28;20182;-52
2022/01/11 03:00:14;;;;;;;12.35;6.68;;;6.00;45.50;;;;;;5076812;28;20204;-52
2022/01/11 03:02:39;;;;;;;25.55;11.55;;;6.00;45.40;;;;;;5077199;28;20222;-52
2022/01/11 03:05:10;;;;;;;21.87;8.33;;;6.00;45.10;;;;;;5076912;28;20172;-52
2022/01/11 03:07:36;;;;;;;18.65;9.80;;;5.90;45.20;;;;;;5076970;28;20193;-52
2022/01/11 03:10:32;;;;;;;15.35;7.22;;;5.90;45.00;;;;;;5075459;28;20161;-52
2022/01/11 03:13:02;;;;;;;19.40;7.78;;;5.80;45.10;;;;;;5076665;28;20157;-52
2022/01/11 03:15:28;;;;;;;19.00;7.93;;;5.70;44.40;;;;;;5076552;28;20544;-52
2022/01/11 03:17:54;;;;;;;32.03;13.30;;;5.70;43.90;;;;;;5076626;28;20173;-52
2022/01/11 03:20:20;;;;;;;23.80;10.87;;;5.50;43.60;;;;;;5076242;28;20807;-52
2022/01/11 03:22:45;;;;;;;27.90;13.90;;;5.40;44.10;;;;;;5076660;28;20176;-52
2022/01/11 03:25:12;;;;;;;21.17;8.40;;;5.30;44.90;;;;;;5076255;28;20410;-52
2022/01/11 03:27:39;;;;;;;10.35;7.32;;;5.30;44.90;;;;;;5076376;28;20546;-52
2022/01/11 03:30:06;;;;;;;18.65;10.18;;;5.30;45.10;;;;;;5076455;28;20160;-52
2022/01/11 03:32:32;;;;;;;20.77;8.50;;;5.30;44.90;;;;;;5074976;28;20169;-52
2022/01/11 03:34:58;;;;;;;11.73;8.43;;;5.30;44.60;;;;;;5076532;28;20169;-52
2022/01/11 03:37:24;;;;;;;15.95;8.38;;;6.20;44.90;;;;;;5076271;28;20438;-52
2022/01/11 03:39:49;;;;;;;20.40;11.80;;;5.20;44.70;;;;;;5076229;28;20281;-52
2022/01/11 03:42:15;;;;;;;24.00;10.30;;;5.30;45.30;;;;;;5076158;28;20165;-52
2022/01/11 03:44:41;;;;;;;26.40;9.63;;;5.40;45.60;;;;;;5076268;28;20175;-52
2022/01/11 03:47:07;;;;;;;17.20;8.80;;;5.40;45.60;;;;;;5074778;28;21029;-52
2022/01/11 03:49:33;;;;;;;21.75;10.02;;;5.50;45.50;;;;;;5076016;28;20524;-52
2022/01/11 03:51:59;;;;;;;23.98;10.48;;;5.50;44.90;;;;;;5075615;28;20531;-52
2022/01/11 03:54:28;;;;;;;16.00;11.60;;;5.50;44.80;;;;;;5075227;28;20180;-52
2022/01/11 03:56:54;;;;;;;24.55;10.52;;;6.30;45.00;;;;;;5075943;28;20912;-52
2022/01/11 03:59:21;;;;;;;24.27;8.25;;;5.40;44.30;;;;;;5075757;28;20667;-52
2022/01/11 04:01:47;;;;;;;24.35;10.35;;;5.40;43.80;;;;;;5075769;28;20173;-52
2022/01/11 04:04:14;;;;;;;15.60;8.90;;;5.30;43.70;;;;;;5075752;28;20173;-52
2022/01/11 04:06:40;;;;;;;25.80;11.18;;;5.30;44.30;;;;;;5075921;28;20242;-52
2022/01/11 04:09:08;;;;;;;25.55;12.70;;;5.20;44.30;;;;;;5075668;28;20196;-52
2022/01/11 04:11:34;;;;;;;20.00;11.75;;;5.20;44.40;;;;;;5074299;28;20673;-52
2022/01/11 04:14:00;;;;;;;21.90;9.27;;;5.20;44.60;;;;;;5075810;28;20547;-52
2022/01/11 04:16:26;;;;;;;27.63;9.83;;;5.20;44.60;;;;;;5074188;28;20179;-52
2022/01/11 04:18:51;;;;;;;19.70;9.17;;;6.60;45.00;;;;;;5075233;28;20470;-52
2022/01/11 04:21:17;;;;;;;21.17;12.63;;;5.20;44.00;;;;;;5075350;28;20214;-52
2022/01/11 04:23:43;;;;;;;27.40;10.23;;;5.10;43.90;;;;;;5075479;28;20165;-52
2022/01/11 04:26:09;;;;;;;17.10;10.07;;;5.10;43.90;;;;;;5075364;28;20734;-52
2022/01/11 04:28:35;;;;;;;28.17;13.50;;;5.00;43.90;;;;;;5075501;28;20175;-52
2022/01/11 04:31:00;;;;;;;23.93;10.43;;;5.00;44.10;;;;;;5075277;28;20171;-52
2022/01/11 04:33:28;;;;;;;37.80;12.13;;;5.00;44.00;;;;;;5075125;28;20411;-52
2022/01/11 04:35:54;;;;;;;16.77;8.38;;;5.00;43.90;;;;;;5075145;28;20254;-52
2022/01/11 04:38:22;;;;;;;18.30;9.43;;;5.00;43.80;;;;;;5057088;28;20172;-52
2022/01/11 04:40:48;;;;;;;22.30;9.70;;;4.90;43.80;;;;;;5075094;28;20192;-52
2022/01/11 04:43:13;;;;;;;18.37;9.57;;;4.90;43.90;;;;;;5074953;28;20208;-52
2022/01/11 04:45:39;;;;;;;26.77;8.60;;;5.00;43.80;;;;;;5074985;28;20502;-52
2022/01/11 04:48:05;;;;;;;18.77;11.13;;;4.90;43.70;;;;;;5074936;28;20172;-52
2022/01/11 04:50:32;;;;;;;29.52;11.65;;;4.90;43.70;;;;;;5074763;28;20200;-52
2022/01/11 04:52:58;;;;;;;21.77;10.85;;;4.80;43.90;;;;;;5074745;28;20643;-52
2022/01/11 04:55:25;;;;;;;20.02;10.23;;;4.80;44.10;;;;;;5074657;28;20164;-52
2022/01/11 04:57:51;;;;;;;16.13;8.43;;;4.80;43.80;;;;;;5074624;28;20160;-52
2022/01/11 05:00:19;;;;;;;21.70;9.77;;;4.70;43.70;;;;;;5074523;28;20286;-52
2022/01/11 05:02:45;;;;;;;14.55;8.15;;;4.70;43.90;;;;;;5074113;28;20200;-52
2022/01/11 05:05:11;;;;;;;32.03;11.13;;;4.70;44.80;;;;;;5074297;28;20689;-52
2022/01/11 05:07:37;;;;;;;14.30;8.43;;;4.60;44.20;;;;;;5074660;28;20248;-52
2022/01/11 05:10:04;;;;;;;19.88;10.70;;;4.60;44.20;;;;;;5074345;28;20544;-52
2022/01/11 05:12:30;;;;;;;16.05;11.45;;;4.60;44.40;;;;;;5074268;28;20176;-52
2022/01/11 05:14:56;;;;;;;24.92;6.90;;;4.60;44.40;;;;;;5073023;28;20548;-52
2022/01/11 05:17:22;;;;;;;23.83;8.60;;;4.60;44.50;;;;;;5074250;28;20165;-52
2022/01/11 05:19:48;;;;;;;28.83;13.40;;;4.50;44.50;;;;;;5073974;28;20473;-51
2022/01/11 05:22:14;;;;;;;30.63;7.73;;;4.50;44.70;;;;;;5074094;28;20762;-52
2022/01/11 05:24:39;;;;;;;16.53;7.70;;;4.60;44.60;;;;;;5074228;28;20415;-52
2022/01/11 05:27:06;;;;;;;22.40;8.90;;;4.50;44.50;;;;;;5074205;28;20175;-52
2022/01/11 05:29:32;;;;;;;18.88;8.88;;;4.50;44.50;;;;;;5074045;28;20198;-52
2022/01/11 05:31:59;;;;;;;14.67;7.67;;;4.40;44.40;;;;;;5074048;28;20536;-52
2022/01/11 05:34:28;;;;;;;18.25;9.13;;;4.50;44.60;;;;;;5073966;28;20407;-52
2022/01/11 05:36:54;;;;;;;12.55;6.40;;;4.60;44.20;;;;;;5072614;28;20199;-51
2022/01/11 05:39:19;;;;;;;30.73;8.97;;;4.40;44.40;;;;;;5073778;28;20206;-52
2022/01/11 05:41:45;;;;;;;20.97;8.20;;;4.50;44.40;;;;;;5072653;28;20172;-52
2022/01/11 05:44:11;;;;;;;20.80;8.50;;;4.50;44.50;;;;;;5073819;28;20659;-52
2022/01/11 05:46:37;;;;;;;19.20;9.20;;;4.40;44.50;;;;;;5072442;28;20415;-52
2022/01/11 05:49:03;;;;;;;15.57;7.93;;;4.40;44.40;;;;;;5073865;28;20442;-52
2022/01/11 05:51:28;;;;;;;21.13;7.87;;;4.40;44.50;;;;;;5073737;28;20639;-52
2022/01/11 05:53:55;;;;;;;15.27;7.17;;;4.40;44.60;;;;;;5072382;28;20972;-52
2022/01/11 05:56:21;;;;;;;14.18;7.88;;;4.40;43.80;;;;;;5073520;28;20627;-52
2022/01/11 05:58:47;;;;;;;20.02;11.25;;;5.40;44.90;;;;;;5073628;28;20197;-52
2022/01/11 06:01:14;;;;;;;12.73;5.57;;;4.40;44.30;;;;;;5073528;28;20214;-52
2022/01/11 06:03:40;;;;;;;12.27;6.40;;;4.40;44.30;;;;;;5073772;28;20642;-52
2022/01/11 06:06:06;;;;;;;20.02;8.52;;;4.40;44.80;;;;;;5073568;28;20211;-52
2022/01/11 06:08:32;;;;;;;11.48;8.13;;;4.50;44.40;;;;;;5073425;28;20176;-52
2022/01/11 06:10:58;;;;;;;19.80;6.57;;;4.60;44.50;;;;;;5073592;28;20501;-52
2022/01/11 06:13:24;;;;;;;23.20;8.18;;;4.60;44.60;;;;;;5071983;28;20196;-52
2022/01/11 06:15:50;;;;;;;15.32;6.45;;;4.70;44.80;;;;;;5073362;28;20172;-52
2022/01/11 06:18:16;;;;;;;15.80;7.18;;;4.70;44.70;;;;;;5071638;28;20181;-52
2022/01/11 06:20:42;;;;;;;17.63;8.23;;;4.80;44.50;;;;;;5073374;28;20184;-52
2022/01/11 06:23:08;;;;;;;13.27;8.00;;;4.70;43.40;;;;;;5073325;28;20501;-52
2022/01/11 06:25:34;;;;;;;28.40;10.97;;;4.70;44.00;;;;;;5073451;28;20878;-52
2022/01/11 06:28:01;;;;;;;9.10;6.45;;;4.70;43.90;;;;;;5073425;28;20652;-52
2022/01/11 06:30:27;;;;;;;18.33;9.38;;;4.70;44.10;;;;;;5073146;28;20192;-52
2022/01/11 06:32:54;;;;;;;13.30;6.53;;;4.70;43.80;;;;;;5071808;28;20164;-52
2022/01/11 06:35:20;;;;;;;14.82;6.85;;;4.80;43.60;;;;;;5073173;28;20173;-52
2022/01/11 06:37:46;;;;;;;17.23;9.57;;;4.70;43.50;;;;;;5073326;28;20268;-52
2022/01/11 06:40:14;;;;;;;11.02;6.97;;;4.70;43.20;;;;;;5072215;28;20279;-52
2022/01/11 06:42:40;;;;;;;16.02;7.60;;;4.70;43.60;;;;;;5073173;28;20196;-52
2022/01/11 06:45:06;;;;;;;17.03;5.93;;;4.70;43.20;;;;;;5073048;28;20594;-52
2022/01/11 06:47:32;;;;;;;8.60;5.70;;;4.70;43.70;;;;;;5073000;28;20187;-52
2022/01/11 06:49:58;;;;;;;9.10;6.33;;;4.70;43.90;;;;;;5073166;28;20632;-52
2022/01/11 06:52:23;;;;;;;29.93;7.73;;;4.70;43.90;;;;;;5072958;28;20632;-52
2022/01/11 06:54:49;;;;;;;14.17;9.57;;;4.80;43.90;;;;;;5071693;28;20175;-52
2022/01/11 06:57:15;;;;;;;7.60;5.93;;;4.80;43.70;;;;;;5072850;28;20226;-52
2022/01/11 06:59:41;;;;;;;15.98;4.43;;;5.90;44.40;;;;;;5073073;28;20258;-52
2022/01/11 07:02:07;;;;;;;13.75;8.32;;;4.90;43.90;;;;;;5073223;28;20191;-52
2022/01/11 07:04:34;;;;;;;18.25;8.18;;;4.90;43.90;;;;;;5072916;28;20819;-51
2022/01/11 07:07:00;;;;;;;9.23;5.75;;;4.90;43.80;;;;;;5073030;28;20184;-51
2022/01/11 07:09:25;;;;;;;15.40;8.03;;;4.90;43.70;;;;;;5072756;28;20161;-51
2022/01/11 07:11:51;;;;;;;8.97;4.13;;;4.90;43.60;;;;;;5072832;28;20405;-51
2022/01/11 07:14:17;;;;;;;22.03;8.40;;;4.90;43.70;;;;;;5072904;28;20399;-51
2022/01/11 07:16:48;;;;;;;11.00;5.80;;;4.90;43.80;;;;;;5072969;28;20545;-51
2022/01/11 07:19:15;;;;;;;22.48;7.38;;;4.90;43.00;;;;;;5072584;28;20213;-51
2022/01/11 07:21:41;;;;;;;9.43;4.30;;;4.80;43.30;;;;;;5072944;28;20180;-51
2022/01/11 07:24:07;;;;;;;17.27;6.63;;;4.80;43.30;;;;;;5072826;28;20554;-51
2022/01/11 07:26:34;;;;;;;16.40;6.05;;;4.80;43.60;;;;;;5073706;28;20505;-51
2022/01/11 07:28:59;;;;;;;7.22;4.75;;;4.70;43.20;;;;;;5076660;28;20188;-51
2022/01/11 07:31:25;;;;;;;14.23;5.83;;;4.70;42.80;;;;;;5076251;28;20165;-51
2022/01/11 07:33:51;;;;;;;18.77;5.43;;;5.10;42.90;;;;;;5076219;28;20646;-51
2022/01/11 07:36:16;;;;;;;17.03;4.40;;;4.50;43.10;;;;;;5076247;28;20201;-51
2022/01/11 07:38:42;;;;;;;11.50;5.43;;;4.50;43.10;;;;;;5076138;28;20520;-51
2022/01/11 07:41:07;;;;;;;16.40;9.40;;;4.40;43.60;;;;;;5076046;28;20173;-51
2022/01/11 07:43:33;;;;;;;11.70;5.27;;;4.50;43.50;;;;;;5076183;28;20566;-51
2022/01/11 07:45:59;;;;;;;17.17;4.90;;;4.50;43.10;;;;;;5076080;28;20247;-51
2022/01/11 07:48:24;;;;;;;12.70;4.83;;;4.50;43.00;;;;;;5075956;28;20180;-51
2022/01/11 07:50:50;;;;;;;9.03;5.97;;;4.40;42.60;;;;;;5076051;28;20213;-51
2022/01/11 07:53:16;;;;;;;9.67;4.10;;;4.30;42.80;;;;;;5075898;28;20191;-51
2022/01/11 07:55:41;;;;;;;14.43;6.53;;;4.30;43.20;;;;;;5075799;28;20527;-51
2022/01/11 07:58:07;;;;;;;13.63;6.93;;;4.20;42.70;;;;;;5075908;28;20519;-51
2022/01/11 08:00:33;;;;;;;15.20;7.20;;;4.20;42.80;;;;;;5075901;28;20653;-51
2022/01/11 08:02:58;;;;;;;8.97;5.80;;;4.20;43.00;;;;;;5074664;28;20733;-51
2022/01/11 08:05:24;;;;;;;12.33;6.07;;;4.20;42.80;;;;;;5074378;28;20173;-51
2022/01/11 08:07:50;;;;;;;10.33;4.97;;;5.40;43.20;;;;;;5075809;28;20165;-51
2022/01/11 08:10:18;;;;;;;7.40;3.70;;;4.10;42.50;;;;;;5075529;28;20635;-51
2022/01/11 08:12:45;;;;;;;11.65;4.40;;;5.10;43.50;;;;;;5075635;28;20640;-51
2022/01/11 08:15:12;;;;;;;13.73;5.57;;;4.10;42.90;;;;;;5074215;28;20230;-51
2022/01/11 08:17:39;;;;;;;6.57;4.75;;;4.70;43.50;;;;;;5074192;28;20198;-51
2022/01/11 08:20:05;;;;;;;13.98;5.25;;;4.20;43.40;;;;;;5075096;28;20232;-51
2022/01/11 08:22:31;;;;;;;11.43;5.55;;;4.20;43.10;;;;;;5075347;28;20636;-51
2022/01/11 08:24:56;;;;;;;7.47;4.73;;;4.20;42.80;;;;;;5075353;28;20187;-51
2022/01/11 08:27:22;;;;;;;16.73;4.97;;;4.30;43.00;;;;;;5075244;28;20693;-51
2022/01/11 08:29:50;;;;;;;15.63;5.23;;;4.20;42.80;;;;;;5075399;28;20172;-51
2022/01/11 08:32:15;;;;;;;12.82;6.53;;;5.10;43.60;;;;;;5075085;28;20472;-51
2022/01/11 08:34:42;;;;;;;14.90;7.87;;;4.30;43.30;;;;;;5075081;28;20632;-51
2022/01/11 08:37:08;;;;;;;14.45;8.13;;;4.30;43.30;;;;;;5074058;28;20183;-51
2022/01/11 08:39:34;;;;;;;7.80;5.78;;;4.30;42.70;;;;;;5075117;28;20703;-51
2022/01/11 08:42:00;;;;;;;13.63;6.75;;;4.20;42.80;;;;;;5075244;28;20218;-51
2022/01/11 08:44:27;;;;;;;6.47;5.60;;;4.30;42.40;;;;;;5073580;28;20639;-51
2022/01/11 08:46:54;;;;;;;12.50;6.50;;;4.20;42.20;;;;;;5074837;28;20266;-51
2022/01/11 08:49:20;;;;;;;13.27;7.70;;;4.20;42.20;;;;;;5074769;28;20169;-51
2022/01/11 08:52:05;;;;;;;10.75;6.45;;;4.10;42.20;;;;;;5074917;28;20188;-51
2022/01/11 08:54:30;;;;;;;13.48;7.20;;;4.20;42.70;;;;;;5074817;28;20237;-51
2022/01/11 08:56:56;;;;;;;12.33;6.07;;;4.20;42.60;;;;;;5074660;28;20643;-51
2022/01/11 08:59:25;;;;;;;17.97;7.13;;;4.90;42.70;;;;;;5074629;28;20447;-51
2022/01/11 09:01:52;;;;;;;8.70;4.60;;;4.20;42.30;;;;;;5074656;28;20411;-51
2022/01/11 09:04:18;;;;;;;13.40;5.50;;;4.20;42.80;;;;;;5073360;28;20172;-51
2022/01/11 09:06:44;;;;;;;16.92;6.45;;;4.20;42.60;;;;;;5073052;28;20226;-50
2022/01/11 09:09:10;;;;;;;10.73;5.17;;;4.30;41.20;;;;;;5074464;28;20177;-50
2022/01/11 09:11:36;;;;;;;5.65;4.03;;;4.20;42.40;;;;;;5074491;28;20196;-50
2022/01/11 09:14:02;;;;;;;11.80;5.63;;;4.30;42.70;;;;;;5073151;28;20197;-50
2022/01/11 09:16:27;;;;;;;10.97;6.07;;;4.40;42.90;;;;;;5073020;28;20448;-51
2022/01/11 09:18:53;;;;;;;14.07;7.20;;;4.50;42.70;;;;;;5074076;28;20746;-51
2022/01/11 09:21:20;;;;;;;13.17;7.20;;;4.50;42.20;;;;;;5074241;28;20173;-51
2022/01/11 09:23:49;;;;;;;15.95;7.32;;;4.50;42.30;;;;;;5074174;28;20222;-51
2022/01/11 09:26:15;;;;;;;11.27;7.53;;;4.50;42.60;;;;;;5074088;28;20177;-52
2022/01/11 09:28:41;;;;;;;18.93;7.03;;;4.50;41.70;;;;;;5074110;28;20193;-50
2022/01/11 09:31:07;;;;;;;11.27;7.10;;;4.40;41.10;;;;;;5074079;28;20421;-51
2022/01/11 09:33:33;;;;;;;8.93;5.57;;;4.30;41.70;;;;;;5072748;28;20206;-51
2022/01/11 09:35:59;;;;;;;13.35;7.65;;;4.30;41.90;;;;;;5072668;28;20179;-50
2022/01/11 09:38:25;;;;;;;15.25;7.45;;;4.20;41.60;;;;;;5074060;28;20171;-50
2022/01/11 09:40:53;;;;;;;9.32;6.68;;;4.10;41.60;;;;;;5072494;28;20203;-50
2022/01/11 09:43:21;;;;;;;14.05;6.30;;;4.10;42.10;;;;;;5073797;28;20178;-51
2022/01/11 09:45:48;;;;;;;13.20;4.15;;;4.10;42.10;;;;;;5074090;28;20184;-50
2022/01/11 09:48:14;;;;;;;13.30;6.88;;;4.20;42.10;;;;;;5073696;28;20169;-50
2022/01/11 09:50:40;;;;;;;11.02;5.68;;;4.20;41.60;;;;;;5073444;28;20172;-51
2022/01/11 09:53:08;;;;;;;17.00;7.97;;;4.20;41.90;;;;;;5072516;28;20180;-53
2022/01/11 09:55:34;;;;;;;11.68;5.72;;;5.60;43.10;;;;;;5073720;28;20179;-50
2022/01/11 09:58:00;;;;;;;11.85;6.55;;;4.40;42.60;;;;;;5073772;28;20172;-51
2022/01/11 10:00:25;;;;;;;18.43;4.83;;;4.40;42.40;;;;;;5073570;28;20192;-50
2022/01/11 10:02:51;;;;;;;14.73;6.07;;;4.50;42.60;;;;;;5072330;28;20172;-50
2022/01/11 10:05:17;;;;;;;12.03;5.97;;;4.50;41.80;;;;;;5073592;28;20885;-50
2022/01/11 10:07:43;;;;;;;23.70;6.57;;;4.50;41.50;;;;;;5073941;28;20169;-50
2022/01/11 10:10:20;;;;;;;8.00;4.60;;;4.40;41.00;;;;;;5073452;28;20164;-50
2022/01/11 10:13:03;;;;;;;15.70;6.63;;;4.30;41.40;;;;;;5073625;28;20615;-50
2022/01/11 10:15:31;;;;;;;17.20;6.75;;;4.30;41.90;;;;;;5073756;28;20168;-50
2022/01/11 10:17:57;;;;;;;14.48;7.60;;;4.30;42.30;;;;;;5072091;28;20222;-50
2022/01/11 10:20:25;;;;;;;13.00;7.77;;;4.40;42.40;;;;;;5071995;28;20683;-50
2022/01/11 10:22:57;;;;;;;11.32;5.70;;;5.50;43.20;;;;;;5073638;28;20508;-50
2022/01/11 10:25:23;;;;;;;8.50;4.55;;;4.60;42.60;;;;;;5073395;28;20171;-51
2022/01/11 10:28:04;;;;;;;11.75;6.20;;;4.60;42.50;;;;;;5073314;28;20168;-50
2022/01/11 10:30:32;;;;;;;14.25;5.57;;;4.70;42.70;;;;;;5073599;28;20167;-50
2022/01/11 10:33:04;;;;;;;26.45;7.78;;;4.80;42.50;;;;;;5073403;28;20176;-50
2022/01/11 10:35:40;;;;;;;6.90;5.35;;;4.80;42.50;;;;;;5072126;28;20159;-50
2022/01/11 10:38:06;;;;;;;20.08;7.70;;;5.20;42.50;;;;;;5073253;28;20156;-50
2022/01/11 10:40:34;;;;;;;16.35;8.25;;;4.90;42.50;;;;;;5073128;28;20615;-52
2022/01/11 10:43:06;;;;;;;21.60;7.40;;;4.90;42.50;;;;;;5073218;28;20638;-50
2022/01/11 10:45:35;;;;;;;16.70;6.18;;;4.90;42.70;;;;;;5073322;28;20247;-51
2022/01/11 10:48:13;;;;;;;12.82;10.05;;;5.00;42.70;;;;;;5073374;28;20187;-50
2022/01/11 10:50:42;;;;;;;11.40;6.32;;;5.00;42.00;;;;;;5073231;28;20171;-51
2022/01/11 10:53:11;;;;;;;11.88;6.30;;;5.00;41.70;;;;;;5072990;28;20266;-50
2022/01/11 10:55:37;;;;;;;8.57;5.40;;;5.00;41.90;;;;;;5073039;28;20169;-50
2022/01/11 10:58:09;;;;;;;8.93;5.28;;;5.00;42.20;;;;;;5073070;28;20171;-50
2022/01/11 11:00:38;;;;;;;12.15;6.30;;;5.00;42.30;;;;;;5072963;28;20294;-50
2022/01/11 11:03:05;;;;;;;15.45;5.65;;;5.10;41.90;;;;;;5076658;28;20186;-51
2022/01/11 11:05:52;;;;;;;11.88;8.60;;;5.10;42.10;;;;;;5077092;28;20639;-51
2022/01/11 11:08:31;;;;;;;8.88;3.63;;;5.20;41.40;;;;;;5072970;28;20685;-50
2022/01/11 11:10:56;;;;;;;5.63;4.88;;;4.90;39.70;;;;;;5076642;28;20149;-50
2022/01/11 11:13:26;;;;;;;9.00;4.47;;;4.70;40.00;;;;;;5075396;28;20173;-50
2022/01/11 11:15:54;;;;;;;16.30;6.80;;;4.60;40.90;;;;;;5076575;28;20193;-50
2022/01/11 11:18:25;;;;;;;16.75;6.28;;;4.70;41.70;;;;;;5075137;28;20277;-50
2022/01/11 11:20:51;;;;;;;15.90;6.55;;;4.80;42.10;;;;;;5076476;28;20272;-50
2022/01/11 11:23:17;;;;;;;13.50;5.70;;;4.90;42.20;;;;;;5076412;28;20324;-51
2022/01/11 11:25:44;;;;;;;10.80;5.80;;;5.00;41.40;;;;;;5076585;28;20174;-50
2022/01/11 11:28:10;;;;;;;6.93;4.18;;;5.00;41.60;;;;;;5076355;28;20217;-51
2022/01/11 11:30:36;;;;;;;14.00;5.70;;;5.00;41.70;;;;;;5076501;28;20178;-51
2022/01/11 11:33:02;;;;;;;19.97;6.50;;;5.10;41.70;;;;;;5076296;28;20180;-50
2022/01/11 11:35:28;;;;;;;11.60;7.68;;;5.20;41.80;;;;;;5076244;28;20163;-50
2022/01/11 11:38:07;;;;;;;12.95;4.60;;;5.20;41.80;;;;;;5076279;28;20256;-50
2022/01/11 11:40:34;;;;;;;20.23;8.70;;;5.20;40.50;;;;;;5076166;28;20257;-51
2022/01/11 11:43:02;;;;;;;20.70;7.85;;;5.20;40.40;;;;;;5076245;28;20229;-51
2022/01/11 11:45:36;;;;;;;10.27;7.22;;;5.10;40.60;;;;;;5075985;28;20164;-51
2022/01/11 11:48:09;;;;;;;13.65;5.30;;;5.10;40.70;;;;;;5076102;28;20153;-51
2022/01/11 11:50:57;;;;;;;13.73;5.75;;;5.10;40.90;;;;;;5076055;28;20563;-51
2022/01/11 11:53:32;;;;;;;5.72;3.30;;;5.10;41.30;;;;;;5076241;28;20168;-51
2022/01/11 11:56:33;;;;;;;20.83;8.57;;;5.10;40.80;;;;;;5074593;28;20167;-51
2022/01/11 11:59:05;;;;;;;12.45;4.40;;;5.00;40.80;;;;;;5064200;28;20302;-51
2022/01/11 12:01:42;;;;;;;19.42;6.65;;;5.00;40.30;;;;;;5074595;28;20167;-51
2022/01/11 12:04:31;;;;;;;13.32;5.70;;;5.00;40.60;;;;;;5075685;28;20639;-51
2022/01/11 12:07:17;;;;;;;15.18;6.70;;;4.90;41.00;;;;;;5065607;28;20183;-51
2022/01/11 12:09:45;;;;;;;10.43;5.28;;;4.90;40.90;;;;;;5075658;28;20179;-51
2022/01/11 12:12:16;;;;;;;8.40;5.10;;;5.00;40.60;;;;;;5075183;28;20656;-51
2022/01/11 12:14:42;;;;;;;13.40;5.13;;;5.00;40.60;;;;;;5075923;28;20247;-51
2022/01/11 12:17:18;;;;;;;15.10;5.53;;;5.00;40.50;;;;;;5075474;28;20212;-50
2022/01/11 12:19:47;;;;;;;15.13;7.05;;;5.00;40.30;;;;;;5075240;28;20334;-51
2022/01/11 12:22:14;;;;;;;10.32;4.72;;;5.00;40.40;;;;;;5074123;28;20255;-50
2022/01/11 12:24:44;;;;;;;19.23;5.72;;;4.90;40.20;;;;;;5075459;28;20168;-50
2022/01/11 12:27:11;;;;;;;15.65;6.90;;;5.80;40.80;;;;;;5075243;28;20589;-51
2022/01/11 12:29:50;;;;;;;12.85;8.23;;;6.10;41.10;;;;;;5075347;28;20251;-50
2022/01/11 12:32:18;;;;;;;12.52;7.05;;;4.90;40.40;;;;;;5075330;28;20156;-50
2022/01/11 12:34:50;;;;;;;9.65;6.95;;;4.80;39.80;;;;;;5075126;28;20208;-51
2022/01/11 12:37:20;;;;;;;13.00;7.20;;;4.80;40.30;;;;;;5035150;28;20166;-51
2022/01/11 12:40:05;;;;;;;19.05;6.53;;;4.80;40.70;;;;;;5035093;28;20198;-51
2022/01/11 12:42:31;;;;;;;11.30;5.03;;;4.80;41.30;;;;;;5035132;28;20208;-51
2022/01/11 12:47:43;;;;;;;14.50;6.27;;;5.40;40.30;;;;;;5034999;28;20170;-51
2022/01/11 12:50:18;;;;;;;19.83;5.50;;;5.00;40.60;;;;;;5035135;28;20630;-51
2022/01/11 12:52:46;;;;;;;19.52;5.90;;;5.00;40.30;;;;;;5035225;28;20256;-50
2022/01/11 12:55:13;;;;;;;11.40;4.80;;;5.00;39.90;;;;;;5034702;28;20173;-51